createdAt,value
2023-03-01T00:01:29.925Z,41.12
2023-03-01T00:06:33.048Z,41.27
2023-03-01T00:11:36.095Z,41.38
2023-03-01T00:16:41.280Z,41.13
2023-03-01T00:21:44.203Z,41.40
2023-03-01T00:26:47.548Z,41.79
2023-03-01T00:31:52.134Z,41.87
2023-03-01T00:36:54.971Z,42.01
2023-03-01T00:41:58.467Z,42.19
2023-03-01T00:47:02.661Z,42.52
2023-03-01T00:52:05.725Z,42.76
2023-03-01T00:57:08.527Z,42.75
2023-03-01T01:02:13.243Z,43.13
2023-03-01T01:07:16.120Z,43.31
2023-03-01T01:12:18.995Z,43.69
2023-03-01T01:17:23.232Z,43.78
2023-03-01T01:22:26.032Z,43.82
2023-03-01T01:27:28.864Z,44.18
2023-03-01T01:32:32.978Z,44.03
2023-03-01T01:37:35.729Z,44.19
2023-03-01T01:42:38.578Z,44.17
2023-03-01T01:47:42.712Z,44.32
2023-03-01T01:52:45.461Z,44.23
2023-03-01T01:57:49.725Z,44.41
2023-03-01T02:02:56.367Z,44.76
2023-03-01T02:07:59.228Z,44.66
2023-03-01T02:13:02.393Z,44.84
2023-03-01T02:18:06.595Z,44.81
2023-03-01T02:23:10.933Z,44.90
2023-03-01T02:28:24.869Z,45.03
2023-03-01T02:33:28.002Z,45.09
2023-03-01T02:38:30.927Z,45.43
2023-03-01T02:43:35.325Z,45.13
2023-03-01T02:48:45.170Z,45.58
2023-03-01T02:53:51.267Z,45.51
2023-03-01T02:58:55.438Z,45.43
2023-03-01T03:03:58.819Z,45.60
2023-03-01T03:09:01.940Z,45.82
2023-03-01T03:14:06.109Z,46.07
2023-03-01T03:19:08.957Z,46.07
2023-03-01T03:24:11.733Z,45.99
2023-03-01T03:29:15.890Z,45.94
2023-03-01T03:34:19.005Z,45.89
2023-03-01T03:39:22.220Z,46.08
2023-03-01T03:44:26.350Z,45.88
2023-03-01T03:49:29.079Z,45.89
2023-03-01T03:54:31.866Z,46.17
2023-03-01T03:59:35.993Z,46.20
2023-03-01T04:04:38.743Z,46.47
2023-03-01T04:09:43.557Z,46.23
2023-03-01T04:14:48.939Z,46.21
2023-03-01T04:19:51.827Z,46.44
2023-03-01T04:24:54.564Z,46.70
2023-03-01T04:29:58.718Z,46.45
2023-03-01T04:35:01.493Z,45.98
2023-03-01T04:40:13.270Z,46.14
2023-03-01T04:45:17.587Z,46.29
2023-03-01T04:50:21.242Z,46.13
2023-03-01T04:55:26.772Z,46.01
2023-03-01T05:00:30.976Z,46.02
2023-03-01T05:05:34.868Z,46.04
2023-03-01T05:10:39.682Z,46.19
2023-03-01T05:15:43.908Z,46.25
2023-03-01T05:20:47.147Z,45.87
2023-03-01T05:25:50.144Z,46.29
2023-03-01T05:30:54.341Z,46.09
2023-03-01T05:36:01.182Z,46.14
2023-03-01T05:41:04.186Z,45.99
2023-03-01T05:46:08.528Z,45.87
2023-03-01T05:51:11.517Z,46.21
2023-03-01T05:56:14.301Z,46.23
2023-03-01T06:01:18.469Z,45.89
2023-03-01T06:06:21.279Z,46.15
2023-03-01T06:11:24.303Z,46.17
2023-03-01T06:16:28.724Z,45.88
2023-03-01T06:21:31.601Z,46.14
2023-03-01T06:26:34.383Z,46.25
2023-03-01T06:31:38.620Z,46.08
2023-03-01T06:36:41.604Z,46.10
2023-03-01T06:41:44.514Z,46.24
2023-03-01T06:46:48.681Z,46.03
2023-03-01T06:51:51.523Z,45.91
2023-03-01T06:56:54.722Z,45.82
2023-03-01T07:01:58.881Z,45.95
2023-03-01T07:07:01.712Z,46.20
2023-03-01T07:12:04.850Z,46.10
2023-03-01T07:17:09.147Z,45.93
2023-03-01T07:22:11.931Z,45.73
2023-03-01T07:27:14.780Z,46.34
2023-03-01T07:32:19.032Z,45.95
2023-03-01T07:37:21.847Z,45.67
2023-03-01T07:42:24.725Z,45.85
2023-03-01T07:47:28.845Z,30.07
2023-03-01T07:52:31.748Z,29.17
2023-03-01T07:57:34.586Z,30.34
2023-03-01T08:02:38.706Z,35.38
2023-03-01T08:07:41.892Z,34.50
2023-03-01T08:12:44.680Z,34.79
2023-03-01T08:17:50.803Z,34.96
2023-03-01T08:22:53.716Z,35.29
2023-03-01T08:27:56.452Z,35.56
2023-03-01T08:33:00.582Z,35.79
2023-03-01T08:38:03.874Z,35.80
2023-03-01T08:43:06.904Z,36.24
2023-03-01T08:48:11.078Z,36.72
2023-03-01T08:53:13.820Z,37.00
2023-03-01T08:58:16.607Z,37.14
2023-03-01T09:03:20.717Z,37.60
2023-03-01T09:08:23.522Z,37.89
2023-03-01T09:13:28.222Z,38.29
2023-03-01T09:18:32.494Z,38.32
2023-03-01T09:23:37.297Z,38.52
2023-03-01T09:28:40.057Z,38.55
2023-03-01T09:33:44.242Z,38.94
2023-03-01T09:38:47.179Z,39.24
2023-03-01T09:43:56.494Z,39.17
2023-03-01T09:49:02.950Z,39.66
2023-03-01T09:54:06.442Z,39.69
2023-03-01T09:59:16.650Z,39.76
2023-03-01T10:04:28.570Z,39.93
2023-03-01T10:09:31.525Z,40.03
2023-03-01T10:14:36.319Z,40.03
2023-03-01T10:19:41.410Z,39.06
2023-03-01T10:24:44.179Z,40.19
2023-03-01T10:29:50.456Z,40.15
2023-03-01T10:34:54.565Z,39.83
2023-03-01T10:39:58.943Z,39.32
2023-03-01T10:45:17.507Z,39.18
2023-03-01T10:50:23.099Z,39.60
2023-03-01T10:55:28.066Z,39.47
2023-03-01T11:00:31.127Z,39.49
2023-03-01T11:05:35.622Z,39.42
2023-03-01T11:10:38.627Z,39.47
2023-03-01T11:15:41.469Z,39.42
2023-03-01T11:20:45.570Z,39.37
2023-03-01T11:25:51.253Z,39.51
2023-03-01T11:31:07.728Z,39.49
2023-03-01T11:36:18.458Z,39.51
2023-03-01T11:41:23.360Z,39.45
2023-03-01T11:46:42.709Z,39.82
2023-03-01T11:51:50.871Z,39.77
2023-03-01T11:56:56.815Z,40.13
2023-03-01T12:02:11.690Z,40.18
2023-03-01T12:07:16.910Z,35.33
2023-03-01T12:12:37.347Z,32.44
2023-03-01T12:17:50.161Z,26.90
2023-03-01T12:23:11.436Z,26.72
2023-03-01T12:28:42.459Z,28.38
2023-03-01T12:33:49.373Z,30.83
2023-03-01T12:39:00.656Z,30.60
2023-03-01T12:44:10.116Z,33.47
2023-03-01T12:49:14.729Z,33.73
2023-03-01T12:54:22.080Z,34.58
2023-03-01T12:59:27.600Z,35.09
2023-03-01T13:04:40.792Z,35.29
2023-03-01T13:09:48.470Z,35.43
2023-03-01T13:14:51.314Z,36.04
2023-03-01T13:20:00.434Z,35.45
2023-03-01T13:25:14.185Z,35.11
2023-03-01T13:30:41.550Z,35.21
2023-03-01T13:35:45.109Z,34.99
2023-03-01T13:41:01.965Z,34.99
2023-03-01T13:46:10.374Z,35.11
2023-03-01T13:51:13.356Z,35.22
2023-03-01T13:56:18.600Z,35.33
2023-03-01T14:01:30.622Z,35.53
2023-03-01T14:06:36.592Z,35.50
2023-03-01T14:12:20.064Z,35.32
2023-03-01T14:17:45.484Z,32.36
2023-03-01T14:22:48.507Z,26.03
2023-03-01T14:27:57.867Z,23.63
2023-03-01T14:33:01.296Z,21.62
2023-03-01T14:38:05.438Z,21.46
2023-03-01T14:43:12.736Z,21.28
2023-03-01T14:48:15.532Z,20.96
2023-03-01T14:53:19.585Z,22.08
2023-03-01T14:58:25.823Z,22.04
2023-03-01T15:03:33.461Z,23.12
2023-03-01T15:08:36.283Z,22.02
2023-03-01T15:13:40.513Z,20.93
2023-03-01T15:18:46.032Z,21.21
2023-03-01T15:23:54.334Z,25.13
2023-03-01T15:29:00.063Z,27.42
2023-03-01T15:34:24.368Z,30.23
2023-03-01T15:39:54.927Z,30.41
2023-03-01T15:45:10.803Z,32.08
2023-03-01T15:50:18.555Z,32.00
2023-03-01T15:55:22.573Z,32.25
2023-03-01T16:00:27.037Z,32.99
2023-03-01T16:05:31.451Z,22.00
2023-03-01T16:10:34.430Z,31.64
2023-03-01T16:15:38.892Z,32.69
2023-03-01T16:20:41.727Z,34.69
2023-03-01T16:25:44.476Z,35.92
2023-03-01T16:30:50.056Z,36.64
2023-03-01T16:35:53.372Z,37.46
2023-03-01T16:40:56.329Z,36.37
2023-03-01T16:46:00.775Z,35.70
2023-03-01T16:51:03.745Z,35.66
2023-03-01T16:56:07.594Z,36.49
2023-03-01T17:01:16.670Z,38.57
2023-03-01T17:06:23.095Z,38.74
2023-03-01T17:11:26.083Z,38.85
2023-03-01T17:16:30.430Z,39.38
2023-03-01T17:21:33.587Z,39.73
2023-03-01T17:26:36.575Z,39.96
2023-03-01T17:31:40.867Z,40.20
2023-03-01T17:36:46.737Z,40.08
2023-03-01T17:41:49.510Z,39.94
2023-03-01T17:46:53.748Z,40.16
2023-03-01T17:51:56.475Z,40.22
2023-03-01T17:56:59.237Z,40.00
2023-03-01T18:02:03.479Z,40.35
2023-03-01T18:07:06.507Z,40.36
2023-03-01T18:12:10.662Z,40.25
2023-03-01T18:17:15.006Z,40.48
2023-03-01T18:22:17.961Z,40.52
2023-03-01T18:27:20.764Z,40.41
2023-03-01T18:32:25.773Z,40.22
2023-03-01T18:37:28.619Z,40.34
2023-03-01T18:42:31.607Z,40.39
2023-03-01T18:47:35.824Z,40.09
2023-03-01T18:52:38.632Z,39.97
2023-03-01T18:57:41.395Z,39.97
2023-03-01T19:02:45.590Z,39.97
2023-03-01T19:07:48.326Z,39.99
2023-03-01T19:12:51.097Z,39.96
2023-03-01T19:17:55.617Z,40.04
2023-03-01T19:22:58.485Z,40.06
2023-03-01T19:28:01.301Z,39.75
2023-03-01T19:33:05.525Z,40.09
2023-03-01T19:38:08.411Z,39.84
2023-03-01T19:43:11.290Z,39.87
2023-03-01T19:48:15.412Z,39.95
2023-03-01T19:53:18.300Z,39.87
2023-03-01T19:58:21.083Z,39.83
2023-03-01T20:03:25.855Z,40.10
2023-03-01T20:08:28.626Z,39.94
2023-03-01T20:13:31.613Z,39.79
2023-03-01T20:18:35.888Z,39.47
2023-03-01T20:23:38.819Z,39.61
2023-03-01T20:28:42.994Z,39.61
2023-03-01T20:33:47.443Z,39.62
2023-03-01T20:38:50.214Z,39.64
2023-03-01T20:43:56.397Z,39.49
2023-03-01T20:49:00.565Z,39.32
2023-03-01T20:54:03.428Z,39.62
2023-03-01T20:59:08.090Z,39.49
2023-03-01T21:04:13.061Z,39.30
2023-03-01T21:09:16.089Z,39.30
2023-03-01T21:14:19.254Z,39.43
2023-03-01T21:19:25.811Z,39.23
2023-03-01T21:24:28.821Z,39.21
2023-03-01T21:29:31.661Z,39.04
2023-03-01T21:34:35.941Z,39.32
2023-03-01T21:39:38.996Z,39.05
2023-03-01T21:44:41.924Z,38.72
2023-03-01T21:49:46.773Z,39.13
2023-03-01T21:54:51.714Z,39.09
2023-03-01T21:59:54.806Z,38.97
2023-03-01T22:04:58.952Z,39.15
2023-03-01T22:10:01.800Z,39.03
2023-03-01T22:15:05.274Z,39.31
2023-03-01T22:20:11.357Z,39.23
2023-03-01T22:25:14.458Z,39.10
2023-03-01T22:30:17.970Z,39.52
2023-03-01T22:35:22.226Z,39.48
2023-03-01T22:40:25.200Z,39.57
2023-03-01T22:45:29.356Z,39.85
2023-03-01T22:50:33.573Z,39.90
2023-03-01T22:55:36.372Z,40.17
2023-03-01T23:00:39.298Z,40.05
2023-03-01T23:05:43.549Z,40.18
2023-03-01T23:10:46.404Z,40.02
2023-03-01T23:15:54.326Z,39.95
2023-03-01T23:20:58.894Z,39.96
2023-03-01T23:26:01.620Z,40.37
2023-03-01T23:31:05.890Z,40.31
2023-03-01T23:36:16.261Z,40.48
2023-03-01T23:41:19.954Z,40.62
2023-03-01T23:46:23.988Z,40.64
2023-03-01T23:51:28.370Z,41.02
2023-03-01T23:56:32.612Z,41.08
